Delta Virtual Airport Information Service

Rome Leonardo da Vinci Fiumicino Airport

ICAO: LIRF Country: Italy
Latitude: 41.8045 Longitude: 12.2508
Latest Arrival : AZA571 (LSZH-LIRF) Latest Departure : ARG1141 (LIRF-SAEZ)


WX CaptureLIVE
Data provided by noaa.gov | Fetched at 12:58:39

METAR : LIRF 241720Z 25005KT 9999 FEW020 17/15 Q1016 NOSIG

TAF : LIRF 241100Z 2412/2518 24012KT 9999 SCT030 TEMPO 2412/2414 TSRA BECMG 2415/2418 VRB05KT TEMPO 2418/2421 SHRA BECMG 2509/2511 26010KT


Runway Data for LIRF
Data provided by openaviationdata.com

Runway ID Mag Var Hdg Length Elevation Surface ILS Freq ILS Id ILS Slope
7 0 69° 10583 ft 14 ft Asphalt -- -- --
16L 0 162° 12823 ft 14 ft Asphalt 108.1 FLL 3
16R 0 162° 12813 ft 14 ft Bituminous 109.75 FRR 3
25 0 249° 10583 ft 14 ft Asphalt 110.15 FEE 3
34L 0 342° 12813 ft 14 ft Bituminous 108.9 ISW 3
34R 0 342° 12823 ft 14 ft Asphalt 111.55 FSS 3

Rome Leonardo da Vinci Fiumicino Airport, Italy
Use only for reference purposes



Not for navigational purposes.